Mountain Loop
White Chuck
Latest observation 09/03 17:00 PDT
| Time (PDT) | Temp °F 5030' | RH % 5030' | Min mph 5030' | Spd mph 5030' | Gust mph 5030' | Dir ° 5030' | SnoHt in 5030' | SR W/m² 5030' |
|---|---|---|---|---|---|---|---|---|
| 09/03 17:00 | 40 | 94 | 0 | 2 | 10 | 105 | 1.8 | 84 |
| 09/03 16:00 | 42 | 97 | 0 | 1 | 3 | 83 | 1.7 | 92 |
| 09/03 15:00 | 42 | 92 | 0 | 0 | 3 | 61 | 1.2 | 142 |
| 09/03 14:00 | 43 | 89 | 0 | 0 | 2 | 55 | 1.1 | 218 |
| 09/03 13:00 | 43 | 92 | 0 | 1 | 3 | 30 | 1.1 | 220 |
| 09/03 12:00 | 42 | 96 | 0 | 0 | 3 | 72 | 1.1 | 130 |
| 09/03 11:00 | 41 | 96 | 0 | 0 | 2 | 35 | 1.0 | 126 |
| 09/03 10:00 | 39 | 98 | 0 | 0 | 5 | 23 | 1.0 | 55 |
| 09/03 09:00 | 39 | 96 | 0 | 0 | 4 | 83 | 1.1 | 48 |
| 09/03 08:00 | 38 | 95 | 0 | 0 | 3 | 106 | 1.1 | 25 |
| 09/03 07:00 | 38 | 96 | 0 | 0 | 3 | 55 | 1.0 | 2 |
| 09/03 06:00 | 37 | 95 | 0 | 1 | 5 | 101 | 1.0 | 0 |
| 09/03 05:00 | 37 | 94 | 0 | 1 | 5 | 114 | 1.1 | 0 |
| 09/03 04:00 | 37 | 96 | 0 | 0 | 6 | 97 | 0.9 | 0 |
| 09/03 03:00 | 37 | 99 | 0 | 0 | 1 | 133 | 1.2 | 0 |
| 09/03 02:00 | 37 | 96 | 0 | 0 | 4 | 347 | 1.0 | 0 |
| 09/03 01:00 | 38 | 100 | 0 | 0 | 3 | 303 | 0.9 | 0 |
| 09/03 00:00 | 39 | 100 | 0 | 0 | 2 | 279 | 1.0 | 0 |
| 09/02 23:00 | 39 | 100 | 0 | 1 | 3 | 265 | 1.1 | 0 |
| 09/02 22:00 | 39 | 100 | 0 | 1 | 3 | 271 | 1.3 | 0 |
| 09/02 21:00 | 42 | 100 | 0 | 1 | 3 | 279 | 1.7 | 0 |
| 09/02 20:00 | 42 | 98 | 0 | 1 | 10 | 25 | 1.6 | 4 |
| 09/02 19:00 | 42 | 94 | 0 | 2 | 8 | 309 | -1.1 | 17 |
| 09/02 18:00 | 45 | 99 | 0 | 0 | 3 | 238 | 1.1 | 14 |

